Cumbe, Brazil
Current Conditions -  °F | °C
As of 3:00 PM on Thursday 18 Dec 2014 (Local Time) from SBAR Reporting Station
Broken Clouds Broken Clouds  
Wind Chill: 81°   Ceiling: 10000
Heat Index: 85°   Visibility: 6mi
Dew Point: 72°   Wind: 13mph
Humidity: 74%   Direction: 100°E
Pressure: 29.85"   Gusts: NA
Location:  10.36°S, 37.18°W
Report Text: SBAR 181800Z 10011KT 9999 SCT015 BKN100 27/22 Q1011
Loading
Personal Weather Stations






























Interactive Weather Map New forecast layout! Learn more

10-Day Weather Forecast

Advertisements
Track Severe Weather on mobile